createdAt,value
2023-03-26T00:00:09.537Z,8.02
2023-03-26T00:03:20.679Z,8.07
2023-03-26T00:06:13.854Z,8.13
2023-03-26T00:09:00.721Z,8.19
2023-03-26T00:11:47.574Z,8.16
2023-03-26T00:14:36.448Z,8.11
2023-03-26T00:17:25.875Z,8.15
2023-03-26T00:20:13.536Z,8.13
2023-03-26T00:23:04.794Z,8.00
2023-03-26T00:25:51.881Z,7.96
2023-03-26T00:28:40.898Z,7.93
2023-03-26T00:31:28.116Z,7.69
2023-03-26T00:34:25.930Z,7.84
2023-03-26T00:37:15.261Z,7.59
2023-03-26T00:40:07.788Z,8.02
2023-03-26T00:42:58.554Z,7.97
2023-03-26T00:45:50.377Z,7.89
2023-03-26T00:51:34.303Z,7.95
2023-03-26T00:54:30.164Z,7.97
2023-03-26T00:57:28.875Z,7.80
2023-03-26T01:00:29.448Z,7.82
2023-03-26T01:03:26.805Z,7.59
2023-03-26T01:06:36.655Z,7.85
2023-03-26T01:09:33.233Z,7.97
2023-03-26T01:12:22.471Z,7.93
2023-03-26T01:15:11.487Z,7.85
2023-03-26T01:18:01.246Z,7.90
2023-03-26T01:20:50.365Z,7.83
2023-03-26T01:23:44.066Z,7.82
2023-03-26T01:26:34.968Z,7.76
2023-03-26T01:29:34.108Z,7.84
2023-03-26T01:32:40.407Z,7.84
2023-03-26T01:36:03.941Z,7.76
2023-03-26T01:39:18.901Z,7.65
2023-03-26T01:42:20.557Z,7.77
2023-03-26T01:45:12.237Z,7.81
2023-03-26T01:48:02.865Z,7.74
2023-03-26T01:50:53.722Z,7.85
2023-03-26T01:53:48.538Z,7.82
2023-03-26T01:57:00.245Z,7.91
2023-03-26T02:00:26.209Z,7.93
2023-03-26T02:03:33.276Z,7.79
2023-03-26T02:06:25.967Z,7.82
2023-03-26T02:09:17.053Z,7.83
2023-03-26T02:12:04.865Z,7.52
2023-03-26T02:14:52.048Z,7.88
2023-03-26T02:17:40.675Z,8.04
2023-03-26T02:20:30.410Z,8.03
2023-03-26T02:23:16.893Z,7.96
2023-03-26T02:26:11.423Z,7.99
2023-03-26T02:29:11.258Z,7.94
2023-03-26T02:32:02.480Z,7.80
2023-03-26T02:34:51.656Z,7.99
2023-03-26T02:37:40.080Z,7.94
2023-03-26T02:40:37.000Z,7.94
2023-03-26T02:43:27.273Z,8.03
2023-03-26T02:46:24.397Z,7.67
2023-03-26T02:49:18.235Z,7.82
2023-03-26T02:52:06.931Z,7.93
2023-03-26T02:54:56.027Z,8.01
2023-03-26T02:57:44.453Z,7.95
2023-03-26T03:00:47.443Z,7.97
2023-03-26T03:03:56.154Z,7.64
2023-03-26T03:06:57.660Z,7.81
2023-03-26T03:09:44.947Z,7.65
2023-03-26T03:13:06.081Z,8.00
2023-03-26T03:15:53.522Z,8.08
2023-03-26T03:18:40.629Z,8.08
2023-03-26T03:21:32.487Z,7.87
2023-03-26T03:24:19.444Z,8.11
2023-03-26T03:27:10.438Z,8.14
2023-03-26T03:30:09.220Z,8.09
2023-03-26T03:33:02.739Z,8.10
2023-03-26T03:35:50.903Z,8.03
2023-03-26T03:38:39.770Z,8.05
2023-03-26T03:41:29.241Z,8.08
2023-03-26T03:44:17.100Z,8.01
2023-03-26T03:47:04.421Z,7.99
2023-03-26T03:49:55.911Z,8.03
2023-03-26T03:52:43.698Z,7.99
2023-03-26T03:55:40.212Z,7.91
2023-03-26T03:58:31.760Z,8.07
2023-03-26T04:01:32.060Z,8.06
2023-03-26T04:04:29.328Z,8.06
2023-03-26T04:07:21.286Z,7.96
2023-03-26T04:10:27.069Z,8.00
2023-03-26T04:13:44.318Z,7.69
2023-03-26T04:16:54.099Z,8.02
2023-03-26T04:19:44.594Z,7.93
2023-03-26T04:22:35.105Z,7.77
2023-03-26T04:25:30.523Z,7.97
2023-03-26T04:28:32.614Z,7.97
2023-03-26T04:31:34.369Z,8.09
2023-03-26T04:34:29.163Z,7.92
2023-03-26T04:37:31.160Z,8.02
2023-03-26T04:40:30.792Z,8.12
2023-03-26T04:43:35.806Z,8.00
2023-03-26T04:46:29.117Z,8.15
2023-03-26T04:49:31.787Z,8.09
2023-03-26T04:52:19.536Z,8.14
2023-03-26T04:55:24.623Z,8.11
2023-03-26T04:58:21.912Z,7.94
2023-03-26T05:01:16.991Z,8.09
2023-03-26T05:04:15.839Z,8.06
2023-03-26T05:07:03.563Z,8.03
2023-03-26T05:10:05.965Z,8.05
2023-03-26T05:13:01.497Z,7.65
2023-03-26T05:15:53.660Z,8.03
2023-03-26T05:18:54.327Z,7.95
2023-03-26T05:21:42.542Z,7.95
2023-03-26T05:24:29.396Z,8.00
2023-03-26T05:27:23.155Z,8.01
2023-03-26T05:30:20.615Z,7.86
2023-03-26T05:33:17.086Z,8.05
2023-03-26T05:36:17.422Z,7.76
2023-03-26T05:39:10.267Z,8.00
2023-03-26T05:42:32.739Z,8.06
2023-03-26T05:45:48.301Z,8.03
2023-03-26T05:48:42.759Z,8.07
2023-03-26T05:51:36.725Z,8.11
2023-03-26T05:54:51.524Z,8.15
2023-03-26T05:57:59.729Z,7.97
2023-03-26T06:01:17.249Z,8.19
2023-03-26T06:04:25.236Z,8.31
2023-03-26T06:07:34.140Z,8.19
2023-03-26T06:10:41.836Z,7.90
2023-03-26T06:13:28.954Z,8.23
2023-03-26T06:16:27.190Z,8.18
2023-03-26T06:19:40.639Z,8.30
2023-03-26T06:22:40.941Z,8.26
2023-03-26T06:25:46.175Z,8.34
2023-03-26T06:28:56.897Z,8.38
2023-03-26T06:32:18.356Z,8.42
2023-03-26T06:35:18.235Z,8.44
2023-03-26T06:38:12.953Z,8.45
2023-03-26T06:41:06.361Z,8.45
2023-03-26T06:44:11.701Z,8.48
2023-03-26T06:47:17.473Z,8.48
2023-03-26T06:50:11.731Z,8.44
2023-03-26T06:53:17.269Z,8.35
2023-03-26T06:56:09.316Z,8.43
2023-03-26T06:59:24.675Z,8.39
2023-03-26T07:02:30.234Z,8.21
2023-03-26T07:05:35.592Z,8.39
2023-03-26T07:08:59.206Z,8.30
2023-03-26T07:12:18.664Z,8.38
2023-03-26T07:15:43.286Z,8.29
2023-03-26T07:18:30.263Z,8.27
2023-03-26T07:21:23.226Z,8.22
2023-03-26T07:24:12.314Z,8.35
2023-03-26T07:27:22.632Z,8.37
2023-03-26T07:30:16.004Z,8.00
2023-03-26T07:33:37.965Z,8.36
2023-03-26T07:36:58.615Z,8.35
2023-03-26T07:40:21.666Z,7.97
2023-03-26T07:44:04.656Z,8.30
2023-03-26T07:47:31.828Z,8.27
2023-03-26T07:50:37.090Z,8.40
2023-03-26T07:53:46.958Z,8.38
2023-03-26T07:57:04.840Z,8.32
2023-03-26T08:00:27.529Z,8.47
2023-03-26T08:03:38.544Z,8.55
2023-03-26T08:07:03.808Z,8.61
2023-03-26T08:13:51.577Z,9.17
2023-03-26T08:17:03.040Z,9.60
2023-03-26T08:20:23.230Z,9.52
2023-03-26T08:23:22.004Z,10.05
2023-03-26T08:26:44.317Z,10.22
2023-03-26T08:29:38.025Z,10.34
2023-03-26T08:32:28.796Z,10.11
2023-03-26T08:35:15.694Z,10.30
2023-03-26T08:38:05.702Z,10.31
2023-03-26T08:40:55.611Z,10.39
2023-03-26T08:43:48.601Z,10.71
2023-03-26T08:47:01.071Z,10.91
2023-03-26T08:50:19.032Z,11.00
2023-03-26T08:53:24.421Z,10.94
2023-03-26T08:56:24.561Z,10.93
2023-03-26T08:59:15.192Z,11.14
2023-03-26T09:02:24.759Z,11.10
2023-03-26T09:05:35.654Z,11.16
2023-03-26T09:08:29.908Z,11.02
2023-03-26T09:11:27.671Z,10.75
2023-03-26T09:14:35.702Z,10.61
2023-03-26T09:18:01.852Z,10.51
2023-03-26T09:20:49.208Z,10.44
2023-03-26T09:23:39.698Z,10.43
2023-03-26T09:26:45.119Z,10.58
2023-03-26T09:30:02.590Z,10.66
2023-03-26T09:33:14.854Z,10.73
2023-03-26T09:36:24.610Z,10.73
2023-03-26T09:39:45.017Z,10.89
2023-03-26T09:42:37.596Z,11.04
2023-03-26T09:46:02.219Z,11.11
2023-03-26T09:49:08.217Z,11.02
2023-03-26T09:51:55.676Z,11.08
2023-03-26T09:55:39.634Z,10.84
2023-03-26T09:58:47.178Z,11.20
2023-03-26T10:02:07.524Z,10.96
2023-03-26T10:05:17.015Z,10.90
2023-03-26T10:08:20.480Z,10.81
2023-03-26T10:11:34.952Z,10.82
2023-03-26T10:14:37.908Z,10.80
2023-03-26T10:17:34.427Z,10.74
2023-03-26T10:20:43.772Z,10.67
2023-03-26T10:23:46.481Z,10.19
2023-03-26T10:27:08.904Z,10.50
2023-03-26T10:30:37.833Z,10.41
2023-03-26T10:33:49.729Z,10.29
2023-03-26T10:36:40.970Z,10.13
2023-03-26T10:39:55.704Z,10.17
2023-03-26T10:42:45.308Z,10.22
2023-03-26T10:45:37.176Z,10.23
2023-03-26T10:49:04.977Z,10.05
2023-03-26T10:52:04.831Z,10.63
2023-03-26T10:55:19.972Z,10.70
2023-03-26T10:58:18.164Z,11.11
2023-03-26T11:01:12.455Z,11.25
2023-03-26T11:04:11.138Z,11.21
2023-03-26T11:07:01.581Z,11.32
2023-03-26T11:10:20.044Z,11.33
2023-03-26T11:13:29.215Z,11.42
2023-03-26T11:16:24.753Z,11.42
2023-03-26T11:19:31.690Z,11.42
2023-03-26T11:22:37.810Z,11.38
2023-03-26T11:26:06.667Z,11.16
2023-03-26T11:29:32.823Z,10.86
2023-03-26T11:32:25.938Z,10.99
2023-03-26T11:35:18.049Z,11.01
2023-03-26T11:38:35.976Z,11.01
2023-03-26T11:41:31.976Z,10.97
2023-03-26T11:44:35.130Z,11.02
2023-03-26T11:47:49.758Z,11.10
2023-03-26T11:50:41.364Z,10.88
2023-03-26T11:53:30.431Z,11.02
2023-03-26T11:56:35.419Z,10.80
2023-03-26T11:59:48.958Z,11.13
2023-03-26T12:02:41.382Z,11.20
2023-03-26T12:05:37.815Z,11.27
2023-03-26T12:08:39.858Z,11.33
2023-03-26T12:11:36.201Z,11.28
2023-03-26T12:14:31.155Z,11.29
2023-03-26T12:17:54.427Z,11.25
2023-03-26T12:20:43.064Z,11.32
2023-03-26T12:24:03.891Z,11.36
2023-03-26T12:27:31.298Z,11.44
2023-03-26T12:30:37.742Z,11.46
2023-03-26T12:33:35.770Z,11.20
2023-03-26T12:36:31.683Z,11.54
2023-03-26T12:40:08.705Z,11.44
2023-03-26T12:44:48.857Z,11.42
2023-03-26T12:47:46.264Z,11.52
2023-03-26T12:49:07.557Z,11.55
2023-03-26T12:51:58.048Z,11.58
2023-03-26T12:54:57.712Z,11.56
2023-03-26T12:57:53.075Z,11.47
2023-03-26T13:01:03.317Z,11.22
2023-03-26T13:04:21.489Z,11.36
2023-03-26T13:07:17.571Z,11.21
2023-03-26T13:10:19.818Z,11.44
2023-03-26T13:13:44.687Z,11.46
2023-03-26T13:16:41.739Z,11.40
2023-03-26T13:19:55.132Z,11.22
2023-03-26T13:23:00.965Z,10.81
2023-03-26T13:26:06.680Z,10.82
2023-03-26T13:29:02.986Z,10.70
2023-03-26T13:32:16.452Z,10.54
2023-03-26T13:35:24.621Z,10.50
2023-03-26T13:38:29.622Z,10.45
2023-03-26T13:41:20.037Z,10.53
2023-03-26T13:44:16.149Z,10.41
2023-03-26T13:47:35.975Z,10.47
2023-03-26T13:50:30.230Z,10.10
2023-03-26T13:53:33.052Z,10.46
2023-03-26T13:56:37.388Z,10.38
2023-03-26T13:59:41.904Z,10.50
2023-03-26T14:02:44.027Z,10.53
2023-03-26T14:05:47.768Z,10.50
2023-03-26T14:08:42.052Z,10.71
2023-03-26T14:11:40.660Z,10.63
2023-03-26T14:14:40.090Z,10.65
2023-03-26T14:17:52.183Z,10.69
2023-03-26T14:21:14.104Z,10.71
2023-03-26T14:24:12.343Z,10.74
2023-03-26T14:27:33.638Z,10.70
2023-03-26T14:30:43.389Z,10.67
2023-03-26T14:33:50.738Z,10.57
2023-03-26T14:37:14.039Z,10.54
2023-03-26T14:40:31.422Z,10.49
2023-03-26T14:43:55.669Z,10.48
2023-03-26T14:47:14.808Z,10.45
2023-03-26T14:50:06.736Z,10.48
2023-03-26T14:53:01.381Z,10.48
2023-03-26T14:55:56.852Z,10.07
2023-03-26T14:59:11.403Z,10.46
2023-03-26T15:02:19.127Z,10.50
2023-03-26T15:05:45.877Z,10.47
2023-03-26T15:08:58.792Z,10.07
2023-03-26T15:12:12.277Z,10.29
2023-03-26T15:15:00.274Z,10.52
2023-03-26T15:18:18.444Z,10.40
2023-03-26T15:21:32.636Z,10.49
2023-03-26T15:24:46.886Z,10.44
2023-03-26T15:27:40.017Z,10.44
2023-03-26T15:30:52.789Z,10.31
2023-03-26T15:34:20.123Z,10.46
2023-03-26T15:37:12.188Z,10.47
2023-03-26T15:40:27.264Z,10.49
2023-03-26T15:43:19.468Z,10.33
2023-03-26T15:46:36.281Z,10.44
2023-03-26T15:49:59.380Z,10.35
2023-03-26T15:52:52.198Z,10.29
2023-03-26T15:56:11.051Z,10.02
2023-03-26T15:59:06.206Z,9.86
2023-03-26T16:02:34.972Z,10.13
2023-03-26T16:05:25.475Z,10.06
2023-03-26T16:08:31.868Z,10.04
2023-03-26T16:11:57.245Z,9.99
2023-03-26T16:14:49.391Z,9.97
2023-03-26T16:18:11.940Z,9.97
2023-03-26T16:21:31.660Z,9.81
2023-03-26T16:24:24.640Z,9.77
2023-03-26T16:27:13.713Z,9.92
2023-03-26T16:30:00.345Z,9.68
2023-03-26T16:32:49.022Z,9.83
2023-03-26T16:35:40.150Z,9.47
2023-03-26T16:38:36.518Z,9.65
2023-03-26T16:41:35.309Z,9.67
2023-03-26T16:44:34.887Z,9.26
2023-03-26T16:47:28.386Z,9.53
2023-03-26T16:50:35.890Z,9.67
2023-03-26T16:54:06.386Z,9.66
2023-03-26T16:57:13.423Z,9.63
2023-03-26T17:00:07.381Z,9.46
2023-03-26T17:03:08.314Z,9.41
2023-03-26T17:06:03.799Z,9.06
2023-03-26T17:08:57.527Z,9.42
2023-03-26T17:12:04.909Z,9.16
2023-03-26T17:14:54.132Z,9.13
2023-03-26T17:17:46.982Z,9.14
2023-03-26T17:21:11.426Z,9.02
2023-03-26T17:24:15.160Z,8.94
2023-03-26T17:31:20.736Z,8.93
2023-03-26T17:54:29.666Z,8.30
2023-03-26T17:57:33.140Z,8.26
2023-03-26T18:00:27.754Z,8.21
2023-03-26T18:03:19.969Z,8.22
2023-03-26T18:06:32.954Z,8.07
2023-03-26T18:09:38.687Z,8.03
2023-03-26T18:12:44.310Z,8.00
2023-03-26T18:15:52.876Z,7.79
2023-03-26T18:18:46.903Z,7.82
2023-03-26T18:21:38.357Z,7.85
2023-03-26T18:24:28.630Z,7.83
2023-03-26T18:27:39.929Z,7.76
2023-03-26T18:30:29.112Z,7.63
2023-03-26T18:33:16.433Z,7.50
2023-03-26T18:36:11.411Z,7.51
2023-03-26T18:39:02.152Z,7.55
2023-03-26T18:41:53.176Z,7.49
2023-03-26T18:44:39.943Z,7.34
2023-03-26T18:47:28.819Z,7.27
2023-03-26T18:50:30.616Z,7.37
2023-03-26T18:53:28.911Z,7.07
2023-03-26T18:56:41.730Z,7.41
2023-03-26T18:59:35.970Z,7.20
2023-03-26T19:02:29.527Z,7.38
2023-03-26T19:05:17.888Z,7.33
2023-03-26T19:08:06.586Z,7.10
2023-03-26T19:10:53.904Z,7.29
2023-03-26T19:13:44.083Z,7.26
2023-03-26T19:16:34.199Z,6.90
2023-03-26T19:19:27.229Z,7.06
2023-03-26T19:22:14.008Z,7.28
2023-03-26T19:25:02.252Z,7.28
2023-03-26T19:28:08.947Z,6.73
2023-03-26T19:30:59.030Z,6.95
2023-03-26T19:33:47.035Z,6.84
2023-03-26T19:36:35.372Z,7.00
2023-03-26T19:39:37.408Z,7.00
2023-03-26T19:42:43.448Z,7.04
2023-03-26T19:45:34.549Z,6.95
2023-03-26T19:48:46.132Z,6.98
2023-03-26T19:51:33.632Z,7.02
2023-03-26T19:54:26.401Z,6.99
2023-03-26T19:57:14.724Z,7.00
2023-03-26T20:00:01.736Z,7.00
2023-03-26T20:02:51.428Z,7.02
2023-03-26T20:05:38.134Z,7.12
2023-03-26T20:08:28.040Z,7.10
2023-03-26T20:11:21.008Z,7.06
2023-03-26T20:14:21.779Z,6.98
2023-03-26T20:17:14.390Z,6.94
2023-03-26T20:20:05.944Z,7.02
2023-03-26T20:22:56.665Z,6.98
2023-03-26T20:25:54.315Z,7.07
2023-03-26T20:28:47.726Z,7.07
2023-03-26T20:31:36.456Z,6.94
2023-03-26T20:34:23.971Z,6.98
2023-03-26T20:37:14.981Z,7.04
2023-03-26T20:40:01.367Z,7.09
2023-03-26T20:42:50.467Z,6.91
2023-03-26T20:45:37.099Z,7.15
2023-03-26T20:48:26.686Z,7.19
2023-03-26T20:51:17.226Z,6.91
2023-03-26T20:54:08.207Z,7.10
2023-03-26T20:56:55.375Z,7.05
2023-03-26T20:59:46.030Z,7.15
2023-03-26T21:02:33.044Z,7.11
2023-03-26T21:05:25.956Z,6.95
2023-03-26T21:08:18.617Z,6.89
2023-03-26T21:11:27.298Z,6.89
2023-03-26T21:14:50.051Z,6.87
2023-03-26T21:17:36.809Z,6.83
2023-03-26T21:20:25.556Z,6.35
2023-03-26T21:23:25.901Z,6.63
2023-03-26T21:26:19.127Z,6.67
2023-03-26T21:29:08.558Z,6.44
2023-03-26T21:32:04.514Z,6.08
2023-03-26T21:34:58.732Z,5.77
2023-03-26T21:37:48.924Z,5.50
2023-03-26T21:40:35.617Z,5.30
2023-03-26T21:43:23.044Z,4.96
2023-03-26T21:46:12.850Z,4.93
2023-03-26T21:49:06.178Z,4.77
2023-03-26T21:51:53.891Z,4.61
2023-03-26T21:54:44.196Z,4.57
2023-03-26T21:57:50.860Z,4.44
2023-03-26T22:01:22.501Z,4.26
2023-03-26T22:04:22.113Z,4.11
2023-03-26T22:07:19.617Z,3.79
2023-03-26T22:10:06.709Z,3.71
2023-03-26T22:12:53.750Z,3.80
2023-03-26T22:15:41.355Z,3.45
2023-03-26T22:18:30.618Z,3.58
2023-03-26T22:21:20.824Z,3.57
2023-03-26T22:24:10.315Z,3.59
2023-03-26T22:26:58.805Z,3.54
2023-03-26T22:29:46.603Z,3.56
2023-03-26T22:32:34.404Z,3.52
2023-03-26T22:35:21.185Z,3.44
2023-03-26T22:38:09.885Z,3.60
2023-03-26T22:40:59.707Z,3.45
2023-03-26T22:43:46.567Z,3.33
2023-03-26T22:46:33.278Z,3.47
2023-03-26T22:49:22.119Z,3.20
2023-03-26T22:52:09.570Z,3.39
2023-03-26T22:54:59.740Z,3.32
2023-03-26T22:57:51.327Z,3.02
2023-03-26T23:00:41.860Z,3.27
2023-03-26T23:03:35.165Z,3.30
2023-03-26T23:06:26.138Z,3.26
2023-03-26T23:09:19.160Z,2.99
2023-03-26T23:12:08.425Z,3.19
2023-03-26T23:14:55.504Z,3.04
2023-03-26T23:17:46.438Z,3.23
2023-03-26T23:20:45.228Z,3.55
2023-03-26T23:23:33.839Z,3.97
2023-03-26T23:26:21.579Z,3.64
2023-03-26T23:29:08.585Z,3.73
2023-03-26T23:31:56.270Z,3.61
2023-03-26T23:34:52.095Z,3.66
2023-03-26T23:37:42.678Z,3.28
2023-03-26T23:40:30.034Z,3.47
2023-03-26T23:43:22.958Z,3.56
2023-03-26T23:46:12.075Z,3.43
2023-03-26T23:49:02.640Z,3.66
2023-03-26T23:51:51.709Z,3.68
2023-03-26T23:54:38.511Z,3.70
2023-03-26T23:57:37.239Z,3.58
